sensor_id;sensor_type;location;lat;lon;timestamp;temperature;humidity
8463;DHT22;4268;52.506;13.462;2023-02-28T00:00:19;2.60;99.90
8463;DHT22;4268;52.506;13.462;2023-02-28T00:02:45;2.60;99.90
8463;DHT22;4268;52.506;13.462;2023-02-28T00:05:14;2.60;99.90
8463;DHT22;4268;52.506;13.462;2023-02-28T00:07:40;2.70;99.90
8463;DHT22;4268;52.506;13.462;2023-02-28T00:10:09;2.60;99.90
8463;DHT22;4268;52.506;13.462;2023-02-28T00:12:36;2.60;99.90
8463;DHT22;4268;52.506;13.462;2023-02-28T00:15:09;2.60;99.90
8463;DHT22;4268;52.506;13.462;2023-02-28T00:17:36;2.50;99.90
8463;DHT22;4268;52.506;13.462;2023-02-28T00:20:02;2.50;99.90
8463;DHT22;4268;52.506;13.462;2023-02-28T00:22:29;2.60;99.90
8463;DHT22;4268;52.506;13.462;2023-02-28T00:24:55;2.50;99.90
8463;DHT22;4268;52.506;13.462;2023-02-28T00:27:20;2.60;99.90
8463;DHT22;4268;52.506;13.462;2023-02-28T00:29:46;2.60;99.90
8463;DHT22;4268;52.506;13.462;2023-02-28T00:32:12;2.60;99.90
8463;DHT22;4268;52.506;13.462;2023-02-28T00:34:37;2.50;99.90
8463;DHT22;4268;52.506;13.462;2023-02-28T00:37:08;2.50;99.90
8463;DHT22;4268;52.506;13.462;2023-02-28T00:39:35;2.50;99.90
8463;DHT22;4268;52.506;13.462;2023-02-28T00:42:01;2.50;99.90
8463;DHT22;4268;52.506;13.462;2023-02-28T00:44:27;2.50;99.90
8463;DHT22;4268;52.506;13.462;2023-02-28T00:46:53;2.50;99.90
8463;DHT22;4268;52.506;13.462;2023-02-28T00:49:19;2.40;99.90
8463;DHT22;4268;52.506;13.462;2023-02-28T00:51:45;2.50;99.90
8463;DHT22;4268;52.506;13.462;2023-02-28T00:54:11;2.50;99.90
8463;DHT22;4268;52.506;13.462;2023-02-28T00:56:37;2.40;99.90
8463;DHT22;4268;52.506;13.462;2023-02-28T00:59:02;2.40;99.90
8463;DHT22;4268;52.506;13.462;2023-02-28T01:01:28;2.40;99.90
8463;DHT22;4268;52.506;13.462;2023-02-28T01:03:53;3.60;99.90
8463;DHT22;4268;52.506;13.462;2023-02-28T01:06:19;2.30;99.90
8463;DHT22;4268;52.506;13.462;2023-02-28T01:08:44;1.50;99.90
8463;DHT22;4268;52.506;13.462;2023-02-28T01:11:11;2.20;99.90
8463;DHT22;4268;52.506;13.462;2023-02-28T01:13:37;2.40;99.90
8463;DHT22;4268;52.506;13.462;2023-02-28T01:16:03;2.40;99.90
8463;DHT22;4268;52.506;13.462;2023-02-28T01:18:29;2.30;99.90
8463;DHT22;4268;52.506;13.462;2023-02-28T01:20:54;2.20;99.90
8463;DHT22;4268;52.506;13.462;2023-02-28T01:23:21;2.30;99.90
8463;DHT22;4268;52.506;13.462;2023-02-28T01:25:49;2.30;99.90
8463;DHT22;4268;52.506;13.462;2023-02-28T01:28:14;2.30;99.90
8463;DHT22;4268;52.506;13.462;2023-02-28T01:30:40;2.30;99.90
8463;DHT22;4268;52.506;13.462;2023-02-28T01:33:06;2.20;99.90
8463;DHT22;4268;52.506;13.462;2023-02-28T01:35:35;2.00;99.90
8463;DHT22;4268;52.506;13.462;2023-02-28T01:38:02;2.00;99.90
8463;DHT22;4268;52.506;13.462;2023-02-28T01:40:27;2.50;99.90
8463;DHT22;4268;52.506;13.462;2023-02-28T01:42:53;2.00;99.90
8463;DHT22;4268;52.506;13.462;2023-02-28T01:45:20;1.90;99.90
8463;DHT22;4268;52.506;13.462;2023-02-28T01:47:48;1.90;99.90
8463;DHT22;4268;52.506;13.462;2023-02-28T01:50:21;0.80;99.90
8463;DHT22;4268;52.506;13.462;2023-02-28T01:52:48;1.70;99.90
8463;DHT22;4268;52.506;13.462;2023-02-28T01:55:16;1.60;99.90
8463;DHT22;4268;52.506;13.462;2023-02-28T01:57:48;2.20;99.90
8463;DHT22;4268;52.506;13.462;2023-02-28T02:00:19;1.90;99.90
8463;DHT22;4268;52.506;13.462;2023-02-28T02:02:48;1.60;99.90
8463;DHT22;4268;52.506;13.462;2023-02-28T02:05:23;1.50;99.90
8463;DHT22;4268;52.506;13.462;2023-02-28T02:07:52;1.50;99.90
8463;DHT22;4268;52.506;13.462;2023-02-28T02:10:32;1.40;99.90
8463;DHT22;4268;52.506;13.462;2023-02-28T02:13:30;1.40;99.90
8463;DHT22;4268;52.506;13.462;2023-02-28T02:19:33;1.30;99.90
8463;DHT22;4268;52.506;13.462;2023-02-28T02:28:12;1.30;99.90
8463;DHT22;4268;52.506;13.462;2023-02-28T02:34:09;1.20;99.90
8463;DHT22;4268;52.506;13.462;2023-02-28T02:37:02;1.10;99.90
8463;DHT22;4268;52.506;13.462;2023-02-28T02:39:36;1.10;99.90
8463;DHT22;4268;52.506;13.462;2023-02-28T02:42:11;1.10;99.90
8463;DHT22;4268;52.506;13.462;2023-02-28T02:44:48;1.10;99.90
8463;DHT22;4268;52.506;13.462;2023-02-28T02:47:18;1.00;99.90
8463;DHT22;4268;52.506;13.462;2023-02-28T02:49:57;1.00;99.90
8463;DHT22;4268;52.506;13.462;2023-02-28T02:52:30;1.10;99.90
8463;DHT22;4268;52.506;13.462;2023-02-28T02:54:59;1.00;99.90
8463;DHT22;4268;52.506;13.462;2023-02-28T02:57:33;1.00;99.90
8463;DHT22;4268;52.506;13.462;2023-02-28T03:00:03;0.90;99.90
8463;DHT22;4268;52.506;13.462;2023-02-28T03:02:30;0.90;99.90
8463;DHT22;4268;52.506;13.462;2023-02-28T03:05:02;0.90;99.90
8463;DHT22;4268;52.506;13.462;2023-02-28T03:07:29;0.90;99.90
8463;DHT22;4268;52.506;13.462;2023-02-28T03:09:56;0.90;99.90
8463;DHT22;4268;52.506;13.462;2023-02-28T03:12:32;0.90;99.90
8463;DHT22;4268;52.506;13.462;2023-02-28T03:15:24;0.90;99.90
8463;DHT22;4268;52.506;13.462;2023-02-28T03:18:10;0.90;99.90
8463;DHT22;4268;52.506;13.462;2023-02-28T03:23:21;0.90;99.90
8463;DHT22;4268;52.506;13.462;2023-02-28T03:26:04;0.90;99.90
8463;DHT22;4268;52.506;13.462;2023-02-28T03:28:45;0.90;99.90
8463;DHT22;4268;52.506;13.462;2023-02-28T03:31:33;0.90;99.90
8463;DHT22;4268;52.506;13.462;2023-02-28T03:34:07;0.90;99.90
8463;DHT22;4268;52.506;13.462;2023-02-28T03:36:39;0.90;99.90
8463;DHT22;4268;52.506;13.462;2023-02-28T03:39:27;0.80;99.90
8463;DHT22;4268;52.506;13.462;2023-02-28T03:42:01;0.80;99.90
8463;DHT22;4268;52.506;13.462;2023-02-28T03:44:32;0.80;99.90
8463;DHT22;4268;52.506;13.462;2023-02-28T03:47:07;0.70;99.90
8463;DHT22;4268;52.506;13.462;2023-02-28T03:49:49;0.70;99.90
8463;DHT22;4268;52.506;13.462;2023-02-28T03:52:18;0.60;99.90
8463;DHT22;4268;52.506;13.462;2023-02-28T03:54:48;0.60;99.90
8463;DHT22;4268;52.506;13.462;2023-02-28T03:58:14;0.60;99.90
8463;DHT22;4268;52.506;13.462;2023-02-28T04:00:16;0.60;99.90
8463;DHT22;4268;52.506;13.462;2023-02-28T04:02:44;0.60;99.90
8463;DHT22;4268;52.506;13.462;2023-02-28T04:05:09;0.50;99.90
8463;DHT22;4268;52.506;13.462;2023-02-28T04:07:36;0.30;99.90
8463;DHT22;4268;52.506;13.462;2023-02-28T04:10:01;0.50;99.90
8463;DHT22;4268;52.506;13.462;2023-02-28T04:12:27;0.50;99.90
8463;DHT22;4268;52.506;13.462;2023-02-28T04:14:52;0.70;99.90
8463;DHT22;4268;52.506;13.462;2023-02-28T04:17:18;0.40;99.90
8463;DHT22;4268;52.506;13.462;2023-02-28T04:19:44;0.40;99.90
8463;DHT22;4268;52.506;13.462;2023-02-28T04:22:09;0.40;99.90
8463;DHT22;4268;52.506;13.462;2023-02-28T04:24:36;0.40;99.90
8463;DHT22;4268;52.506;13.462;2023-02-28T04:27:02;0.40;99.90
8463;DHT22;4268;52.506;13.462;2023-02-28T04:29:30;0.30;99.90
8463;DHT22;4268;52.506;13.462;2023-02-28T04:31:57;0.30;99.90
8463;DHT22;4268;52.506;13.462;2023-02-28T04:34:25;0.30;99.90
8463;DHT22;4268;52.506;13.462;2023-02-28T04:36:51;0.20;99.90
8463;DHT22;4268;52.506;13.462;2023-02-28T04:39:19;0.10;99.90
8463;DHT22;4268;52.506;13.462;2023-02-28T04:41:45;0.10;99.90
8463;DHT22;4268;52.506;13.462;2023-02-28T04:44:11;0.10;99.90
8463;DHT22;4268;52.506;13.462;2023-02-28T04:46:38;0.10;99.90
8463;DHT22;4268;52.506;13.462;2023-02-28T04:49:03;-0.80;99.90
8463;DHT22;4268;52.506;13.462;2023-02-28T04:51:29;0.10;99.90
8463;DHT22;4268;52.506;13.462;2023-02-28T04:53:54;0.10;99.90
8463;DHT22;4268;52.506;13.462;2023-02-28T04:56:21;0.40;99.90
8463;DHT22;4268;52.506;13.462;2023-02-28T04:58:47;0.00;99.90
8463;DHT22;4268;52.506;13.462;2023-02-28T05:01:23;0.00;99.90
8463;DHT22;4268;52.506;13.462;2023-02-28T05:03:49;0.00;99.90
8463;DHT22;4268;52.506;13.462;2023-02-28T05:06:15;0.00;99.90
8463;DHT22;4268;52.506;13.462;2023-02-28T05:08:41;0.00;99.90
8463;DHT22;4268;52.506;13.462;2023-02-28T05:11:21;0.00;99.90
8463;DHT22;4268;52.506;13.462;2023-02-28T05:13:49;-0.10;99.90
8463;DHT22;4268;52.506;13.462;2023-02-28T05:16:15;-0.10;99.90
8463;DHT22;4268;52.506;13.462;2023-02-28T05:18:41;-0.90;99.90
8463;DHT22;4268;52.506;13.462;2023-02-28T05:23:46;-0.10;99.90
8463;DHT22;4268;52.506;13.462;2023-02-28T05:26:11;-0.20;99.90
8463;DHT22;4268;52.506;13.462;2023-02-28T05:28:37;-0.10;99.90
8463;DHT22;4268;52.506;13.462;2023-02-28T05:31:02;-0.20;99.90
8463;DHT22;4268;52.506;13.462;2023-02-28T05:33:28;-0.20;99.90
8463;DHT22;4268;52.506;13.462;2023-02-28T05:35:53;0.00;99.90
8463;DHT22;4268;52.506;13.462;2023-02-28T05:38:18;-0.20;99.90
8463;DHT22;4268;52.506;13.462;2023-02-28T05:40:44;-0.20;99.90
8463;DHT22;4268;52.506;13.462;2023-02-28T05:43:10;-0.20;99.90
8463;DHT22;4268;52.506;13.462;2023-02-28T05:45:36;-0.20;99.90
8463;DHT22;4268;52.506;13.462;2023-02-28T05:48:02;-0.20;99.90
8463;DHT22;4268;52.506;13.462;2023-02-28T05:50:27;-0.10;99.90
8463;DHT22;4268;52.506;13.462;2023-02-28T05:52:53;-0.20;99.90
8463;DHT22;4268;52.506;13.462;2023-02-28T05:55:19;-0.20;99.90
8463;DHT22;4268;52.506;13.462;2023-02-28T05:57:44;-0.20;99.90
8463;DHT22;4268;52.506;13.462;2023-02-28T06:00:11;-0.20;99.90
8463;DHT22;4268;52.506;13.462;2023-02-28T06:02:38;-0.10;99.90
8463;DHT22;4268;52.506;13.462;2023-02-28T06:05:04;-0.20;99.90
8463;DHT22;4268;52.506;13.462;2023-02-28T06:07:30;-0.10;99.90
8463;DHT22;4268;52.506;13.462;2023-02-28T06:09:55;-0.10;99.90
8463;DHT22;4268;52.506;13.462;2023-02-28T06:12:21;-0.10;99.90
8463;DHT22;4268;52.506;13.462;2023-02-28T06:14:46;-0.10;99.90
8463;DHT22;4268;52.506;13.462;2023-02-28T06:17:12;-0.10;99.90
8463;DHT22;4268;52.506;13.462;2023-02-28T06:19:38;-0.10;99.90
8463;DHT22;4268;52.506;13.462;2023-02-28T06:22:06;-0.20;99.90
8463;DHT22;4268;52.506;13.462;2023-02-28T06:24:32;0.00;99.90
8463;DHT22;4268;52.506;13.462;2023-02-28T06:26:58;0.00;99.90
8463;DHT22;4268;52.506;13.462;2023-02-28T06:29:31;0.00;99.90
8463;DHT22;4268;52.506;13.462;2023-02-28T06:31:56;0.10;99.90
8463;DHT22;4268;52.506;13.462;2023-02-28T06:34:22;0.10;99.90
8463;DHT22;4268;52.506;13.462;2023-02-28T06:36:50;0.10;99.90
8463;DHT22;4268;52.506;13.462;2023-02-28T06:39:16;0.10;99.90
8463;DHT22;4268;52.506;13.462;2023-02-28T06:41:41;0.10;99.90
8463;DHT22;4268;52.506;13.462;2023-02-28T06:44:15;0.20;99.90
8463;DHT22;4268;52.506;13.462;2023-02-28T06:46:42;0.20;99.90
8463;DHT22;4268;52.506;13.462;2023-02-28T06:49:09;0.30;99.90
8463;DHT22;4268;52.506;13.462;2023-02-28T06:51:36;0.30;99.90
8463;DHT22;4268;52.506;13.462;2023-02-28T06:54:02;0.30;99.90
8463;DHT22;4268;52.506;13.462;2023-02-28T06:56:28;0.40;99.90
8463;DHT22;4268;52.506;13.462;2023-02-28T06:58:54;0.50;99.90
8463;DHT22;4268;52.506;13.462;2023-02-28T07:01:20;0.60;99.90
8463;DHT22;4268;52.506;13.462;2023-02-28T07:03:46;0.70;99.90
8463;DHT22;4268;52.506;13.462;2023-02-28T07:06:11;1.00;99.90
8463;DHT22;4268;52.506;13.462;2023-02-28T07:08:38;2.90;99.90
8463;DHT22;4268;52.506;13.462;2023-02-28T07:11:05;5.20;99.90
8463;DHT22;4268;52.506;13.462;2023-02-28T07:13:30;7.20;99.90
8463;DHT22;4268;52.506;13.462;2023-02-28T07:16:02;8.80;97.50
8463;DHT22;4268;52.506;13.462;2023-02-28T07:18:28;10.00;93.10
8463;DHT22;4268;52.506;13.462;2023-02-28T07:20:53;10.70;89.40
8463;DHT22;4268;52.506;13.462;2023-02-28T07:23:19;11.10;86.50
8463;DHT22;4268;52.506;13.462;2023-02-28T07:25:45;11.60;83.40
8463;DHT22;4268;52.506;13.462;2023-02-28T07:28:11;12.00;80.30
8463;DHT22;4268;52.506;13.462;2023-02-28T07:30:37;12.20;78.40
8463;DHT22;4268;52.506;13.462;2023-02-28T07:33:02;12.30;76.30
8463;DHT22;4268;52.506;13.462;2023-02-28T07:35:29;12.60;76.00
8463;DHT22;4268;52.506;13.462;2023-02-28T07:37:54;12.70;74.20
8463;DHT22;4268;52.506;13.462;2023-02-28T07:40:20;12.90;70.50
8463;DHT22;4268;52.506;13.462;2023-02-28T07:42:46;13.30;69.60
8463;DHT22;4268;52.506;13.462;2023-02-28T07:45:12;13.40;68.60
8463;DHT22;4268;52.506;13.462;2023-02-28T07:47:38;13.40;67.30
8463;DHT22;4268;52.506;13.462;2023-02-28T07:50:05;14.00;65.90
8463;DHT22;4268;52.506;13.462;2023-02-28T07:52:31;13.90;64.90
8463;DHT22;4268;52.506;13.462;2023-02-28T07:54:57;13.90;62.00
8463;DHT22;4268;52.506;13.462;2023-02-28T07:57:23;13.90;59.90
8463;DHT22;4268;52.506;13.462;2023-02-28T07:59:48;14.10;57.30
8463;DHT22;4268;52.506;13.462;2023-02-28T08:02:15;13.80;56.10
8463;DHT22;4268;52.506;13.462;2023-02-28T08:04:40;13.60;56.20
8463;DHT22;4268;52.506;13.462;2023-02-28T08:07:06;13.30;56.20
8463;DHT22;4268;52.506;13.462;2023-02-28T08:09:32;11.90;56.40
8463;DHT22;4268;52.506;13.462;2023-02-28T08:11:59;10.70;58.10
8463;DHT22;4268;52.506;13.462;2023-02-28T08:14:24;9.50;60.70
8463;DHT22;4268;52.506;13.462;2023-02-28T08:16:50;8.60;61.80
8463;DHT22;4268;52.506;13.462;2023-02-28T08:19:15;7.20;64.50
8463;DHT22;4268;52.506;13.462;2023-02-28T08:21:41;6.50;66.00
8463;DHT22;4268;52.506;13.462;2023-02-28T08:24:06;6.10;67.20
8463;DHT22;4268;52.506;13.462;2023-02-28T08:26:32;5.60;68.30
8463;DHT22;4268;52.506;13.462;2023-02-28T08:28:58;5.30;70.00
8463;DHT22;4268;52.506;13.462;2023-02-28T08:31:23;5.10;71.90
8463;DHT22;4268;52.506;13.462;2023-02-28T08:33:49;4.80;75.30
8463;DHT22;4268;52.506;13.462;2023-02-28T08:36:17;4.70;76.30
8463;DHT22;4268;52.506;13.462;2023-02-28T08:38:43;4.70;75.70
8463;DHT22;4268;52.506;13.462;2023-02-28T08:41:11;4.60;73.90
8463;DHT22;4268;52.506;13.462;2023-02-28T08:43:37;4.60;73.90
8463;DHT22;4268;52.506;13.462;2023-02-28T08:46:04;4.50;74.40
8463;DHT22;4268;52.506;13.462;2023-02-28T08:48:31;4.50;75.50
8463;DHT22;4268;52.506;13.462;2023-02-28T08:50:57;4.50;76.50
8463;DHT22;4268;52.506;13.462;2023-02-28T08:53:23;4.50;76.10
8463;DHT22;4268;52.506;13.462;2023-02-28T08:55:56;4.50;74.20
8463;DHT22;4268;52.506;13.462;2023-02-28T08:58:22;4.50;74.20
8463;DHT22;4268;52.506;13.462;2023-02-28T09:00:47;4.50;73.40
8463;DHT22;4268;52.506;13.462;2023-02-28T09:03:13;4.60;72.80
8463;DHT22;4268;52.506;13.462;2023-02-28T09:05:38;4.60;72.70
8463;DHT22;4268;52.506;13.462;2023-02-28T09:08:04;4.60;73.70
8463;DHT22;4268;52.506;13.462;2023-02-28T09:10:30;4.60;72.10
8463;DHT22;4268;52.506;13.462;2023-02-28T09:12:55;4.60;72.50
8463;DHT22;4268;52.506;13.462;2023-02-28T09:15:21;4.70;72.90
8463;DHT22;4268;52.506;13.462;2023-02-28T09:17:46;4.70;72.50
8463;DHT22;4268;52.506;13.462;2023-02-28T09:20:12;4.70;72.30
8463;DHT22;4268;52.506;13.462;2023-02-28T09:22:37;4.70;72.20
8463;DHT22;4268;52.506;13.462;2023-02-28T09:25:03;4.80;71.10
8463;DHT22;4268;52.506;13.462;2023-02-28T09:27:29;4.80;70.70
8463;DHT22;4268;52.506;13.462;2023-02-28T09:29:54;5.30;71.20
8463;DHT22;4268;52.506;13.462;2023-02-28T09:32:19;4.80;70.60
8463;DHT22;4268;52.506;13.462;2023-02-28T09:34:45;5.00;70.50
8463;DHT22;4268;52.506;13.462;2023-02-28T09:37:11;5.00;70.30
8463;DHT22;4268;52.506;13.462;2023-02-28T09:39:36;5.10;69.20
8463;DHT22;4268;52.506;13.462;2023-02-28T09:42:02;5.10;69.10
8463;DHT22;4268;52.506;13.462;2023-02-28T09:44:36;5.00;70.30
8463;DHT22;4268;52.506;13.462;2023-02-28T09:49:46;5.10;70.40
8463;DHT22;4268;52.506;13.462;2023-02-28T09:52:19;5.10;70.30
8463;DHT22;4268;52.506;13.462;2023-02-28T09:54:46;5.10;70.20
8463;DHT22;4268;52.506;13.462;2023-02-28T09:57:32;5.10;69.60
8463;DHT22;4268;52.506;13.462;2023-02-28T10:08:18;5.20;69.20
8463;DHT22;4268;52.506;13.462;2023-02-28T10:10:58;5.20;69.10
8463;DHT22;4268;52.506;13.462;2023-02-28T10:13:26;5.30;69.10
8463;DHT22;4268;52.506;13.462;2023-02-28T10:15:56;5.20;68.60
8463;DHT22;4268;52.506;13.462;2023-02-28T10:18:48;5.30;69.20
8463;DHT22;4268;52.506;13.462;2023-02-28T10:21:19;5.40;69.50
8463;DHT22;4268;52.506;13.462;2023-02-28T10:23:46;5.40;68.60
8463;DHT22;4268;52.506;13.462;2023-02-28T10:26:14;5.40;68.60
8463;DHT22;4268;52.506;13.462;2023-02-28T10:28:42;5.40;69.10
8463;DHT22;4268;52.506;13.462;2023-02-28T10:31:16;5.50;68.40
8463;DHT22;4268;52.506;13.462;2023-02-28T10:33:42;5.50;68.40
8463;DHT22;4268;52.506;13.462;2023-02-28T10:36:17;5.60;68.80
8463;DHT22;4268;52.506;13.462;2023-02-28T10:38:44;5.60;68.60
8463;DHT22;4268;52.506;13.462;2023-02-28T10:41:31;5.50;68.80
8463;DHT22;4268;52.506;13.462;2023-02-28T10:44:22;5.80;68.00
8463;DHT22;4268;52.506;13.462;2023-02-28T10:46:49;5.80;67.50
8463;DHT22;4268;52.506;13.462;2023-02-28T10:49:28;5.70;67.90
8463;DHT22;4268;52.506;13.462;2023-02-28T10:51:59;5.70;68.00
8463;DHT22;4268;52.506;13.462;2023-02-28T10:54:35;5.70;68.60
8463;DHT22;4268;52.506;13.462;2023-02-28T10:57:22;5.80;68.50
8463;DHT22;4268;52.506;13.462;2023-02-28T10:59:53;5.70;68.40
8463;DHT22;4268;52.506;13.462;2023-02-28T11:02:36;5.80;69.20
8463;DHT22;4268;52.506;13.462;2023-02-28T11:05:29;5.90;69.40
8463;DHT22;4268;52.506;13.462;2023-02-28T11:10:30;6.00;69.30
8463;DHT22;4268;52.506;13.462;2023-02-28T11:12:57;6.10;68.90
8463;DHT22;4268;52.506;13.462;2023-02-28T11:15:34;6.00;68.70
8463;DHT22;4268;52.506;13.462;2023-02-28T11:20:36;6.10;68.80
8463;DHT22;4268;52.506;13.462;2023-02-28T11:23:03;6.00;69.20
8463;DHT22;4268;52.506;13.462;2023-02-28T11:25:32;6.00;68.90
8463;DHT22;4268;52.506;13.462;2023-02-28T11:27:59;6.00;68.50
8463;DHT22;4268;52.506;13.462;2023-02-28T11:30:38;6.00;68.90
8463;DHT22;4268;52.506;13.462;2023-02-28T11:33:22;6.10;68.70
8463;DHT22;4268;52.506;13.462;2023-02-28T11:35:49;6.20;68.50
8463;DHT22;4268;52.506;13.462;2023-02-28T11:38:15;6.20;68.10
8463;DHT22;4268;52.506;13.462;2023-02-28T11:41:21;6.20;68.30
8463;DHT22;4268;52.506;13.462;2023-02-28T11:46:34;6.40;68.50
8463;DHT22;4268;52.506;13.462;2023-02-28T11:51:35;6.10;69.30
8463;DHT22;4268;52.506;13.462;2023-02-28T11:54:49;6.10;69.80
8463;DHT22;4268;52.506;13.462;2023-02-28T11:57:43;6.20;70.00
8463;DHT22;4268;52.506;13.462;2023-02-28T12:03:29;6.50;69.50
8463;DHT22;4268;52.506;13.462;2023-02-28T12:08:53;6.30;68.10
8463;DHT22;4268;52.506;13.462;2023-02-28T12:11:40;6.30;68.80
8463;DHT22;4268;52.506;13.462;2023-02-28T12:20:02;6.20;69.50
8463;DHT22;4268;52.506;13.462;2023-02-28T12:23:17;6.20;68.30
8463;DHT22;4268;52.506;13.462;2023-02-28T12:25:33;6.20;68.20
8463;DHT22;4268;52.506;13.462;2023-02-28T12:28:02;6.10;68.90
8463;DHT22;4268;52.506;13.462;2023-02-28T12:30:31;6.20;68.70
8463;DHT22;4268;52.506;13.462;2023-02-28T12:33:07;6.20;68.70
8463;DHT22;4268;52.506;13.462;2023-02-28T12:35:47;6.30;69.20
8463;DHT22;4268;52.506;13.462;2023-02-28T12:38:21;6.30;67.40
8463;DHT22;4268;52.506;13.462;2023-02-28T12:41:00;6.30;67.40
8463;DHT22;4268;52.506;13.462;2023-02-28T12:43:33;6.20;67.50
8463;DHT22;4268;52.506;13.462;2023-02-28T12:46:11;6.20;67.80
8463;DHT22;4268;52.506;13.462;2023-02-28T12:48:46;6.20;67.60
8463;DHT22;4268;52.506;13.462;2023-02-28T12:51:12;6.10;67.20
8463;DHT22;4268;52.506;13.462;2023-02-28T12:54:02;6.10;67.30
8463;DHT22;4268;52.506;13.462;2023-02-28T12:56:35;6.20;67.30
8463;DHT22;4268;52.506;13.462;2023-02-28T13:02:09;6.10;67.60
8463;DHT22;4268;52.506;13.462;2023-02-28T13:05:22;6.20;68.20
8463;DHT22;4268;52.506;13.462;2023-02-28T13:08:13;6.30;68.50
8463;DHT22;4268;52.506;13.462;2023-02-28T13:10:52;6.50;67.80
8463;DHT22;4268;52.506;13.462;2023-02-28T13:13:27;6.00;68.00
8463;DHT22;4268;52.506;13.462;2023-02-28T13:15:58;6.40;67.60
8463;DHT22;4268;52.506;13.462;2023-02-28T13:18:39;6.40;67.50
8463;DHT22;4268;52.506;13.462;2023-02-28T13:21:21;6.40;66.70
8463;DHT22;4268;52.506;13.462;2023-02-28T13:35:34;6.30;67.70
8463;DHT22;4268;52.506;13.462;2023-02-28T13:39:55;6.40;68.80
8463;DHT22;4268;52.506;13.462;2023-02-28T13:42:47;6.40;67.60
8463;DHT22;4268;52.506;13.462;2023-02-28T13:45:22;6.40;68.40
8463;DHT22;4268;52.506;13.462;2023-02-28T13:47:58;6.40;67.50
8463;DHT22;4268;52.506;13.462;2023-02-28T13:50:31;6.40;68.00
8463;DHT22;4268;52.506;13.462;2023-02-28T13:56:23;6.50;68.10
8463;DHT22;4268;52.506;13.462;2023-02-28T13:58:55;6.50;67.60
8463;DHT22;4268;52.506;13.462;2023-02-28T14:04:54;6.40;67.50
8463;DHT22;4268;52.506;13.462;2023-02-28T14:07:26;6.40;67.50
8463;DHT22;4268;52.506;13.462;2023-02-28T14:10:03;6.50;67.60
8463;DHT22;4268;52.506;13.462;2023-02-28T14:12:53;6.40;67.50
8463;DHT22;4268;52.506;13.462;2023-02-28T14:18:29;6.30;67.40
8463;DHT22;4268;52.506;13.462;2023-02-28T14:21:21;6.30;67.40
8463;DHT22;4268;52.506;13.462;2023-02-28T14:24:09;6.30;67.80
8463;DHT22;4268;52.506;13.462;2023-02-28T14:27:03;6.30;67.80
8463;DHT22;4268;52.506;13.462;2023-02-28T14:37:49;6.10;67.60
8463;DHT22;4268;52.506;13.462;2023-02-28T14:40:21;6.00;67.70
8463;DHT22;4268;52.506;13.462;2023-02-28T14:43:02;6.00;68.20
8463;DHT22;4268;52.506;13.462;2023-02-28T14:45:30;6.00;68.20
8463;DHT22;4268;52.506;13.462;2023-02-28T14:47:56;6.00;68.30
8463;DHT22;4268;52.506;13.462;2023-02-28T14:50:34;6.10;68.60
8463;DHT22;4268;52.506;13.462;2023-02-28T14:53:01;6.10;68.70
8463;DHT22;4268;52.506;13.462;2023-02-28T14:55:33;6.10;68.50
8463;DHT22;4268;52.506;13.462;2023-02-28T14:58:04;6.10;68.40
8463;DHT22;4268;52.506;13.462;2023-02-28T15:00:39;6.10;68.50
8463;DHT22;4268;52.506;13.462;2023-02-28T15:03:35;6.10;67.70
8463;DHT22;4268;52.506;13.462;2023-02-28T15:06:06;6.10;67.50
8463;DHT22;4268;52.506;13.462;2023-02-28T15:08:37;6.00;67.20
8463;DHT22;4268;52.506;13.462;2023-02-28T15:11:13;5.90;67.60
8463;DHT22;4268;52.506;13.462;2023-02-28T15:13:42;5.80;68.20
8463;DHT22;4268;52.506;13.462;2023-02-28T15:16:21;5.80;68.80
8463;DHT22;4268;52.506;13.462;2023-02-28T15:19:18;5.70;69.10
8463;DHT22;4268;52.506;13.462;2023-02-28T15:21:49;5.70;68.70
8463;DHT22;4268;52.506;13.462;2023-02-28T15:26:58;5.60;69.50
8463;DHT22;4268;52.506;13.462;2023-02-28T15:29:27;5.60;69.60
8463;DHT22;4268;52.506;13.462;2023-02-28T15:32:01;5.50;69.30
8463;DHT22;4268;52.506;13.462;2023-02-28T15:36:52;5.40;69.90
8463;DHT22;4268;52.506;13.462;2023-02-28T15:39:26;5.40;70.00
8463;DHT22;4268;52.506;13.462;2023-02-28T15:41:52;5.40;70.10
8463;DHT22;4268;52.506;13.462;2023-02-28T15:44:34;5.40;70.70
8463;DHT22;4268;52.506;13.462;2023-02-28T15:47:06;5.60;70.80
8463;DHT22;4268;52.506;13.462;2023-02-28T15:49:54;5.40;70.90
8463;DHT22;4268;52.506;13.462;2023-02-28T15:52:34;5.40;71.30
8463;DHT22;4268;52.506;13.462;2023-02-28T15:55:20;5.30;71.10
8463;DHT22;4268;52.506;13.462;2023-02-28T15:57:50;5.20;71.60
8463;DHT22;4268;52.506;13.462;2023-02-28T16:00:20;5.20;71.80
8463;DHT22;4268;52.506;13.462;2023-02-28T16:02:46;5.00;72.00
8463;DHT22;4268;52.506;13.462;2023-02-28T16:05:19;5.00;72.40
8463;DHT22;4268;52.506;13.462;2023-02-28T16:07:54;5.00;72.00
8463;DHT22;4268;52.506;13.462;2023-02-28T16:10:21;5.20;72.00
8463;DHT22;4268;52.506;13.462;2023-02-28T16:12:50;5.10;72.00
8463;DHT22;4268;52.506;13.462;2023-02-28T16:15:19;5.10;72.80
8463;DHT22;4268;52.506;13.462;2023-02-28T16:17:45;5.00;73.00
8463;DHT22;4268;52.506;13.462;2023-02-28T16:20:17;4.90;73.00
8463;DHT22;4268;52.506;13.462;2023-02-28T16:22:43;4.80;73.20
8463;DHT22;4268;52.506;13.462;2023-02-28T16:25:13;4.80;73.50
8463;DHT22;4268;52.506;13.462;2023-02-28T16:27:39;4.80;73.50
8463;DHT22;4268;52.506;13.462;2023-02-28T16:30:06;4.70;73.70
8463;DHT22;4268;52.506;13.462;2023-02-28T16:32:34;4.70;73.70
8463;DHT22;4268;52.506;13.462;2023-02-28T16:35:01;4.70;73.60
8463;DHT22;4268;52.506;13.462;2023-02-28T16:37:27;4.80;73.60
8463;DHT22;4268;52.506;13.462;2023-02-28T16:39:53;4.80;73.60
8463;DHT22;4268;52.506;13.462;2023-02-28T16:42:24;4.80;73.70
8463;DHT22;4268;52.506;13.462;2023-02-28T16:44:51;4.70;73.70
8463;DHT22;4268;52.506;13.462;2023-02-28T16:47:16;4.70;74.10
8463;DHT22;4268;52.506;13.462;2023-02-28T16:49:42;4.40;74.00
8463;DHT22;4268;52.506;13.462;2023-02-28T16:52:09;4.50;74.80
8463;DHT22;4268;52.506;13.462;2023-02-28T16:54:35;4.50;74.90
8463;DHT22;4268;52.506;13.462;2023-02-28T16:57:01;4.40;75.30
8463;DHT22;4268;52.506;13.462;2023-02-28T16:59:27;4.40;75.00
8463;DHT22;4268;52.506;13.462;2023-02-28T17:01:55;4.40;75.20
8463;DHT22;4268;52.506;13.462;2023-02-28T17:04:23;4.40;75.50
8463;DHT22;4268;52.506;13.462;2023-02-28T17:06:49;4.30;75.80
8463;DHT22;4268;52.506;13.462;2023-02-28T17:09:20;4.30;75.90
8463;DHT22;4268;52.506;13.462;2023-02-28T17:11:45;4.20;76.40
8463;DHT22;4268;52.506;13.462;2023-02-28T17:14:11;4.10;76.80
8463;DHT22;4268;52.506;13.462;2023-02-28T17:16:37;4.10;78.10
8463;DHT22;4268;52.506;13.462;2023-02-28T17:19:06;4.10;77.70
8463;DHT22;4268;52.506;13.462;2023-02-28T17:21:33;4.20;77.70
8463;DHT22;4268;52.506;13.462;2023-02-28T17:23:59;4.10;77.80
8463;DHT22;4268;52.506;13.462;2023-02-28T17:26:25;4.10;77.90
8463;DHT22;4268;52.506;13.462;2023-02-28T17:28:53;4.00;78.00
8463;DHT22;4268;52.506;13.462;2023-02-28T17:31:21;3.90;78.20
8463;DHT22;4268;52.506;13.462;2023-02-28T17:33:47;3.90;78.40
8463;DHT22;4268;52.506;13.462;2023-02-28T17:36:25;3.80;78.70
8463;DHT22;4268;52.506;13.462;2023-02-28T17:38:52;3.80;79.40
8463;DHT22;4268;52.506;13.462;2023-02-28T17:41:19;3.70;79.50
8463;DHT22;4268;52.506;13.462;2023-02-28T17:43:45;3.70;79.80
8463;DHT22;4268;52.506;13.462;2023-02-28T17:46:19;3.60;80.00
8463;DHT22;4268;52.506;13.462;2023-02-28T17:48:47;3.60;80.30
8463;DHT22;4268;52.506;13.462;2023-02-28T17:51:13;3.50;80.40